sensor_id;sensor_type;location;lat;lon;timestamp;temperature;humidity
40077;DHT22;25777;47.824;18.982;2023-06-22T00:00:40;19.60;99.90
40077;DHT22;25777;47.824;18.982;2023-06-22T00:03:09;19.60;99.90
40077;DHT22;25777;47.824;18.982;2023-06-22T00:08:29;19.60;99.90
40077;DHT22;25777;47.824;18.982;2023-06-22T00:11:02;19.70;99.90
40077;DHT22;25777;47.824;18.982;2023-06-22T00:13:27;19.70;99.90
40077;DHT22;25777;47.824;18.982;2023-06-22T00:18:45;19.80;99.90
40077;DHT22;25777;47.824;18.982;2023-06-22T00:23:49;19.60;99.90
40077;DHT22;25777;47.824;18.982;2023-06-22T00:26:16;19.60;99.90
40077;DHT22;25777;47.824;18.982;2023-06-22T00:31:15;19.50;99.90
40077;DHT22;25777;47.824;18.982;2023-06-22T00:33:41;19.50;99.90
40077;DHT22;25777;47.824;18.982;2023-06-22T00:36:06;19.40;99.90
40077;DHT22;25777;47.824;18.982;2023-06-22T00:38:33;19.50;99.90
40077;DHT22;25777;47.824;18.982;2023-06-22T00:41:04;19.40;99.90
40077;DHT22;25777;47.824;18.982;2023-06-22T00:46:23;19.40;99.90
40077;DHT22;25777;47.824;18.982;2023-06-22T00:51:40;19.50;99.90
40077;DHT22;25777;47.824;18.982;2023-06-22T00:57:06;19.30;99.90
40077;DHT22;25777;47.824;18.982;2023-06-22T00:59:38;19.30;99.90
40077;DHT22;25777;47.824;18.982;2023-06-22T01:02:09;19.30;99.90
40077;DHT22;25777;47.824;18.982;2023-06-22T01:04:44;19.20;99.90
40077;DHT22;25777;47.824;18.982;2023-06-22T01:10:03;19.20;99.90
40077;DHT22;25777;47.824;18.982;2023-06-22T01:15:02;19.30;99.90
40077;DHT22;25777;47.824;18.982;2023-06-22T01:17:43;19.30;99.90
40077;DHT22;25777;47.824;18.982;2023-06-22T01:20:16;19.30;99.90
40077;DHT22;25777;47.824;18.982;2023-06-22T01:31:05;19.20;99.90
40077;DHT22;25777;47.824;18.982;2023-06-22T01:33:45;19.20;99.90
40077;DHT22;25777;47.824;18.982;2023-06-22T01:36:14;19.10;99.90
40077;DHT22;25777;47.824;18.982;2023-06-22T01:38:51;19.20;99.90
40077;DHT22;25777;47.824;18.982;2023-06-22T01:41:20;19.20;99.90
40077;DHT22;25777;47.824;18.982;2023-06-22T01:43:46;19.20;99.90
40077;DHT22;25777;47.824;18.982;2023-06-22T01:48:49;19.20;99.90
40077;DHT22;25777;47.824;18.982;2023-06-22T01:51:17;19.20;99.90
40077;DHT22;25777;47.824;18.982;2023-06-22T01:56:37;19.20;99.90
40077;DHT22;25777;47.824;18.982;2023-06-22T01:59:09;19.20;99.90
40077;DHT22;25777;47.824;18.982;2023-06-22T02:07:10;19.20;99.90
40077;DHT22;25777;47.824;18.982;2023-06-22T02:09:39;19.20;99.90
40077;DHT22;25777;47.824;18.982;2023-06-22T02:12:07;19.20;99.90
40077;DHT22;25777;47.824;18.982;2023-06-22T02:14:36;19.10;99.90
40077;DHT22;25777;47.824;18.982;2023-06-22T02:17:03;19.00;99.90
40077;DHT22;25777;47.824;18.982;2023-06-22T02:19:35;19.00;99.90
40077;DHT22;25777;47.824;18.982;2023-06-22T02:22:03;19.10;99.90
40077;DHT22;25777;47.824;18.982;2023-06-22T02:24:28;19.00;99.90
40077;DHT22;25777;47.824;18.982;2023-06-22T02:27:02;19.10;99.90
40077;DHT22;25777;47.824;18.982;2023-06-22T02:29:43;19.10;99.90
40077;DHT22;25777;47.824;18.982;2023-06-22T02:32:09;19.00;99.90
40077;DHT22;25777;47.824;18.982;2023-06-22T02:34:46;18.90;99.90
40077;DHT22;25777;47.824;18.982;2023-06-22T02:37:13;18.80;99.90
40077;DHT22;25777;47.824;18.982;2023-06-22T02:39:42;18.90;99.90
40077;DHT22;25777;47.824;18.982;2023-06-22T02:42:08;19.00;99.90
40077;DHT22;25777;47.824;18.982;2023-06-22T02:44:36;19.00;99.90
40077;DHT22;25777;47.824;18.982;2023-06-22T02:47:15;19.10;99.90
40077;DHT22;25777;47.824;18.982;2023-06-22T02:49:43;19.10;99.90
40077;DHT22;25777;47.824;18.982;2023-06-22T02:52:11;19.10;99.90
40077;DHT22;25777;47.824;18.982;2023-06-22T02:54:41;19.10;99.90
40077;DHT22;25777;47.824;18.982;2023-06-22T02:57:19;19.10;99.90
40077;DHT22;25777;47.824;18.982;2023-06-22T02:59:46;19.10;99.90
40077;DHT22;25777;47.824;18.982;2023-06-22T03:02:19;19.10;99.90
40077;DHT22;25777;47.824;18.982;2023-06-22T03:04:47;19.10;99.90
40077;DHT22;25777;47.824;18.982;2023-06-22T03:07:26;19.10;99.90
40077;DHT22;25777;47.824;18.982;2023-06-22T03:09:57;19.20;99.90
40077;DHT22;25777;47.824;18.982;2023-06-22T03:12:23;19.20;99.90
40077;DHT22;25777;47.824;18.982;2023-06-22T03:14:49;19.20;99.90
40077;DHT22;25777;47.824;18.982;2023-06-22T03:17:18;19.20;99.90
40077;DHT22;25777;47.824;18.982;2023-06-22T03:19:46;19.20;99.90
40077;DHT22;25777;47.824;18.982;2023-06-22T03:24:47;19.10;99.90
40077;DHT22;25777;47.824;18.982;2023-06-22T03:27:13;19.20;99.90
40077;DHT22;25777;47.824;18.982;2023-06-22T03:29:39;19.20;99.90
40077;DHT22;25777;47.824;18.982;2023-06-22T03:32:05;19.10;99.90
40077;DHT22;25777;47.824;18.982;2023-06-22T03:34:31;19.00;99.90
40077;DHT22;25777;47.824;18.982;2023-06-22T03:36:58;19.10;99.90
40077;DHT22;25777;47.824;18.982;2023-06-22T03:39:24;19.00;99.90
40077;DHT22;25777;47.824;18.982;2023-06-22T03:41:50;19.00;99.90
40077;DHT22;25777;47.824;18.982;2023-06-22T03:44:16;19.00;99.90
40077;DHT22;25777;47.824;18.982;2023-06-22T03:46:42;19.00;99.90
40077;DHT22;25777;47.824;18.982;2023-06-22T03:49:15;19.00;99.90
40077;DHT22;25777;47.824;18.982;2023-06-22T03:51:47;19.00;99.90
40077;DHT22;25777;47.824;18.982;2023-06-22T03:54:19;19.00;99.90
40077;DHT22;25777;47.824;18.982;2023-06-22T03:56:45;19.00;99.90
40077;DHT22;25777;47.824;18.982;2023-06-22T03:59:11;19.00;99.90
40077;DHT22;25777;47.824;18.982;2023-06-22T04:01:37;19.10;99.90
40077;DHT22;25777;47.824;18.982;2023-06-22T04:04:14;19.10;99.90
40077;DHT22;25777;47.824;18.982;2023-06-22T04:06:40;19.10;99.90
40077;DHT22;25777;47.824;18.982;2023-06-22T04:16:54;19.10;99.90
40077;DHT22;25777;47.824;18.982;2023-06-22T04:19:20;19.10;99.90
40077;DHT22;25777;47.824;18.982;2023-06-22T04:21:48;19.20;99.90
40077;DHT22;25777;47.824;18.982;2023-06-22T04:24:14;19.20;99.90
40077;DHT22;25777;47.824;18.982;2023-06-22T04:26:41;19.20;99.90
40077;DHT22;25777;47.824;18.982;2023-06-22T04:29:07;19.20;99.90
40077;DHT22;25777;47.824;18.982;2023-06-22T04:31:37;19.20;99.90
40077;DHT22;25777;47.824;18.982;2023-06-22T04:34:09;19.30;99.90
40077;DHT22;25777;47.824;18.982;2023-06-22T04:39:29;19.30;99.90
40077;DHT22;25777;47.824;18.982;2023-06-22T04:41:56;19.40;99.90
40077;DHT22;25777;47.824;18.982;2023-06-22T04:47:03;19.50;99.90
40077;DHT22;25777;47.824;18.982;2023-06-22T04:49:40;19.50;99.90
40077;DHT22;25777;47.824;18.982;2023-06-22T04:52:21;19.60;99.90
40077;DHT22;25777;47.824;18.982;2023-06-22T04:54:55;19.60;99.90
40077;DHT22;25777;47.824;18.982;2023-06-22T04:57:29;19.70;99.90
40077;DHT22;25777;47.824;18.982;2023-06-22T04:59:58;19.80;99.90
40077;DHT22;25777;47.824;18.982;2023-06-22T05:02:39;19.80;99.90
40077;DHT22;25777;47.824;18.982;2023-06-22T05:05:11;19.90;99.90
40077;DHT22;25777;47.824;18.982;2023-06-22T05:07:39;19.80;99.90
40077;DHT22;25777;47.824;18.982;2023-06-22T05:10:10;19.90;99.90
40077;DHT22;25777;47.824;18.982;2023-06-22T05:12:40;19.90;99.90
40077;DHT22;25777;47.824;18.982;2023-06-22T05:15:07;20.00;99.90
40077;DHT22;25777;47.824;18.982;2023-06-22T05:17:35;20.10;99.90
40077;DHT22;25777;47.824;18.982;2023-06-22T05:20:03;20.10;99.90
40077;DHT22;25777;47.824;18.982;2023-06-22T05:22:32;20.20;99.90
40077;DHT22;25777;47.824;18.982;2023-06-22T05:24:58;20.20;99.90
40077;DHT22;25777;47.824;18.982;2023-06-22T05:27:28;20.30;99.90
40077;DHT22;25777;47.824;18.982;2023-06-22T05:29:56;20.20;99.90
40077;DHT22;25777;47.824;18.982;2023-06-22T05:35:06;20.40;99.90
40077;DHT22;25777;47.824;18.982;2023-06-22T05:37:36;20.50;99.90
40077;DHT22;25777;47.824;18.982;2023-06-22T05:40:03;20.60;99.90
40077;DHT22;25777;47.824;18.982;2023-06-22T05:42:30;20.70;99.90
40077;DHT22;25777;47.824;18.982;2023-06-22T05:44:56;20.80;99.90
40077;DHT22;25777;47.824;18.982;2023-06-22T05:50:07;21.00;99.90
40077;DHT22;25777;47.824;18.982;2023-06-22T05:52:34;21.10;99.90
40077;DHT22;25777;47.824;18.982;2023-06-22T05:55:01;21.20;99.90
40077;DHT22;25777;47.824;18.982;2023-06-22T05:57:30;21.30;99.90
40077;DHT22;25777;47.824;18.982;2023-06-22T05:59:56;21.30;99.90
40077;DHT22;25777;47.824;18.982;2023-06-22T06:02:25;21.30;99.90
40077;DHT22;25777;47.824;18.982;2023-06-22T06:04:51;21.50;99.90
40077;DHT22;25777;47.824;18.982;2023-06-22T06:07:18;21.60;99.90
40077;DHT22;25777;47.824;18.982;2023-06-22T06:09:44;21.60;99.90
40077;DHT22;25777;47.824;18.982;2023-06-22T06:12:11;21.70;99.90
40077;DHT22;25777;47.824;18.982;2023-06-22T06:14:37;21.80;99.90
40077;DHT22;25777;47.824;18.982;2023-06-22T06:17:11;21.90;99.90
40077;DHT22;25777;47.824;18.982;2023-06-22T06:19:37;22.00;99.90
40077;DHT22;25777;47.824;18.982;2023-06-22T06:24:34;22.10;99.90
40077;DHT22;25777;47.824;18.982;2023-06-22T06:27:00;22.20;99.90
40077;DHT22;25777;47.824;18.982;2023-06-22T06:29:25;22.40;99.90
40077;DHT22;25777;47.824;18.982;2023-06-22T06:31:54;22.40;99.90
40077;DHT22;25777;47.824;18.982;2023-06-22T06:34:22;22.60;99.90
40077;DHT22;25777;47.824;18.982;2023-06-22T06:39:33;22.70;99.90
40077;DHT22;25777;47.824;18.982;2023-06-22T06:42:12;22.90;99.90
40077;DHT22;25777;47.824;18.982;2023-06-22T06:44:38;22.90;99.90
40077;DHT22;25777;47.824;18.982;2023-06-22T06:47:10;22.90;99.90
40077;DHT22;25777;47.824;18.982;2023-06-22T06:49:36;23.00;99.90
40077;DHT22;25777;47.824;18.982;2023-06-22T06:52:07;23.00;99.90
40077;DHT22;25777;47.824;18.982;2023-06-22T06:54:35;23.10;99.90
40077;DHT22;25777;47.824;18.982;2023-06-22T06:57:02;23.20;99.90
40077;DHT22;25777;47.824;18.982;2023-06-22T06:59:28;23.30;99.90
40077;DHT22;25777;47.824;18.982;2023-06-22T07:02:04;23.30;99.90
40077;DHT22;25777;47.824;18.982;2023-06-22T07:07:11;23.50;99.90
40077;DHT22;25777;47.824;18.982;2023-06-22T07:09:50;23.60;99.90
40077;DHT22;25777;47.824;18.982;2023-06-22T07:12:16;23.70;99.90
40077;DHT22;25777;47.824;18.982;2023-06-22T07:14:42;23.80;99.90
40077;DHT22;25777;47.824;18.982;2023-06-22T07:19:46;24.10;99.90
40077;DHT22;25777;47.824;18.982;2023-06-22T07:22:18;24.20;99.90
40077;DHT22;25777;47.824;18.982;2023-06-22T07:24:44;24.40;99.90
40077;DHT22;25777;47.824;18.982;2023-06-22T07:27:11;24.50;99.90
40077;DHT22;25777;47.824;18.982;2023-06-22T07:29:38;24.50;99.90
40077;DHT22;25777;47.824;18.982;2023-06-22T07:34:38;24.80;99.90
40077;DHT22;25777;47.824;18.982;2023-06-22T07:39:41;25.00;99.90
40077;DHT22;25777;47.824;18.982;2023-06-22T07:44:44;25.10;99.90
40077;DHT22;25777;47.824;18.982;2023-06-22T07:47:10;25.20;99.90
40077;DHT22;25777;47.824;18.982;2023-06-22T07:49:38;25.30;99.90
40077;DHT22;25777;47.824;18.982;2023-06-22T07:52:13;25.60;99.90
40077;DHT22;25777;47.824;18.982;2023-06-22T07:54:40;25.60;99.90
40077;DHT22;25777;47.824;18.982;2023-06-22T07:57:08;25.80;99.90
40077;DHT22;25777;47.824;18.982;2023-06-22T07:59:39;25.90;99.90
40077;DHT22;25777;47.824;18.982;2023-06-22T08:04:55;26.00;99.90
40077;DHT22;25777;47.824;18.982;2023-06-22T08:10:17;26.30;99.90
40077;DHT22;25777;47.824;18.982;2023-06-22T08:12:51;26.30;99.90
40077;DHT22;25777;47.824;18.982;2023-06-22T08:15:17;26.20;99.90
40077;DHT22;25777;47.824;18.982;2023-06-22T08:17:44;26.50;99.90
40077;DHT22;25777;47.824;18.982;2023-06-22T08:20:21;26.60;99.90
40077;DHT22;25777;47.824;18.982;2023-06-22T08:22:48;26.70;99.90
40077;DHT22;25777;47.824;18.982;2023-06-22T08:25:15;26.90;99.90
40077;DHT22;25777;47.824;18.982;2023-06-22T08:27:46;26.80;99.90
40077;DHT22;25777;47.824;18.982;2023-06-22T08:30:13;26.90;99.90
40077;DHT22;25777;47.824;18.982;2023-06-22T08:32:44;27.20;99.90
40077;DHT22;25777;47.824;18.982;2023-06-22T08:35:24;27.30;99.90
40077;DHT22;25777;47.824;18.982;2023-06-22T08:40:22;27.50;99.90
40077;DHT22;25777;47.824;18.982;2023-06-22T08:42:48;27.70;99.90
40077;DHT22;25777;47.824;18.982;2023-06-22T08:45:17;27.80;99.90
40077;DHT22;25777;47.824;18.982;2023-06-22T08:47:43;27.90;99.90
40077;DHT22;25777;47.824;18.982;2023-06-22T08:50:09;27.80;99.90
40077;DHT22;25777;47.824;18.982;2023-06-22T08:52:38;28.00;99.90
40077;DHT22;25777;47.824;18.982;2023-06-22T08:55:06;28.20;99.90
40077;DHT22;25777;47.824;18.982;2023-06-22T09:00:23;28.30;99.90
40077;DHT22;25777;47.824;18.982;2023-06-22T09:02:49;28.20;97.20
40077;DHT22;25777;47.824;18.982;2023-06-22T09:05:17;28.40;99.90
40077;DHT22;25777;47.824;18.982;2023-06-22T09:07:47;28.40;99.90
40077;DHT22;25777;47.824;18.982;2023-06-22T09:10:14;28.50;99.90
40077;DHT22;25777;47.824;18.982;2023-06-22T09:12:48;28.80;99.90
40077;DHT22;25777;47.824;18.982;2023-06-22T09:15:22;28.90;97.60
40077;DHT22;25777;47.824;18.982;2023-06-22T09:18:01;28.90;97.40
40077;DHT22;25777;47.824;18.982;2023-06-22T09:20:34;28.90;99.90
40077;DHT22;25777;47.824;18.982;2023-06-22T09:23:07;29.00;99.90
40077;DHT22;25777;47.824;18.982;2023-06-22T09:28:03;28.80;95.20
40077;DHT22;25777;47.824;18.982;2023-06-22T09:33:05;29.30;99.90
40077;DHT22;25777;47.824;18.982;2023-06-22T09:38:02;29.50;92.90
40077;DHT22;25777;47.824;18.982;2023-06-22T09:40:28;29.60;94.10
40077;DHT22;25777;47.824;18.982;2023-06-22T09:42:54;29.40;92.90
40077;DHT22;25777;47.824;18.982;2023-06-22T09:45:20;29.80;97.30
40077;DHT22;25777;47.824;18.982;2023-06-22T09:47:46;29.90;94.00
40077;DHT22;25777;47.824;18.982;2023-06-22T09:50:14;30.10;94.10
40077;DHT22;25777;47.824;18.982;2023-06-22T09:52:40;30.20;93.60
40077;DHT22;25777;47.824;18.982;2023-06-22T09:55:10;30.50;95.00
40077;DHT22;25777;47.824;18.982;2023-06-22T09:57:41;30.50;90.80
40077;DHT22;25777;47.824;18.982;2023-06-22T10:00:07;30.50;90.80
40077;DHT22;25777;47.824;18.982;2023-06-22T10:02:36;30.50;91.80
40077;DHT22;25777;47.824;18.982;2023-06-22T10:05:07;30.50;92.00
40077;DHT22;25777;47.824;18.982;2023-06-22T10:07:33;30.00;93.00
40077;DHT22;25777;47.824;18.982;2023-06-22T10:09:59;29.80;92.10
40077;DHT22;25777;47.824;18.982;2023-06-22T10:15:28;30.20;86.60
40077;DHT22;25777;47.824;18.982;2023-06-22T10:20:38;30.30;88.20
40077;DHT22;25777;47.824;18.982;2023-06-22T10:23:04;30.90;90.20
40077;DHT22;25777;47.824;18.982;2023-06-22T10:25:38;31.10;82.80
40077;DHT22;25777;47.824;18.982;2023-06-22T10:28:06;30.90;89.30
40077;DHT22;25777;47.824;18.982;2023-06-22T10:30:32;31.10;89.70
40077;DHT22;25777;47.824;18.982;2023-06-22T10:33:00;31.30;88.20
40077;DHT22;25777;47.824;18.982;2023-06-22T10:38:03;31.50;89.90
40077;DHT22;25777;47.824;18.982;2023-06-22T10:40:30;31.70;86.90
40077;DHT22;25777;47.824;18.982;2023-06-22T10:42:58;31.90;85.40
40077;DHT22;25777;47.824;18.982;2023-06-22T10:45:26;31.90;89.10
40077;DHT22;25777;47.824;18.982;2023-06-22T10:47:52;31.80;85.60
40077;DHT22;25777;47.824;18.982;2023-06-22T10:50:22;31.60;82.40
40077;DHT22;25777;47.824;18.982;2023-06-22T10:52:55;31.70;88.70
40077;DHT22;25777;47.824;18.982;2023-06-22T10:58:02;32.20;86.30
40077;DHT22;25777;47.824;18.982;2023-06-22T11:00:28;32.10;84.10
40077;DHT22;25777;47.824;18.982;2023-06-22T11:03:02;32.10;86.30
40077;DHT22;25777;47.824;18.982;2023-06-22T11:05:32;32.30;83.40
40077;DHT22;25777;47.824;18.982;2023-06-22T11:10:42;32.20;75.40
40077;DHT22;25777;47.824;18.982;2023-06-22T11:13:14;32.00;77.80
40077;DHT22;25777;47.824;18.982;2023-06-22T11:15:41;32.10;79.30
40077;DHT22;25777;47.824;18.982;2023-06-22T11:18:13;32.20;78.30
40077;DHT22;25777;47.824;18.982;2023-06-22T11:20:40;32.20;85.40
40077;DHT22;25777;47.824;18.982;2023-06-22T11:23:08;32.10;78.10
40077;DHT22;25777;47.824;18.982;2023-06-22T11:28:08;32.30;79.20
40077;DHT22;25777;47.824;18.982;2023-06-22T11:30:34;32.30;83.00
40077;DHT22;25777;47.824;18.982;2023-06-22T11:33:07;32.60;77.80
40077;DHT22;25777;47.824;18.982;2023-06-22T11:35:35;32.60;80.80
40077;DHT22;25777;47.824;18.982;2023-06-22T11:40:39;32.40;76.10
40077;DHT22;25777;47.824;18.982;2023-06-22T11:43:07;32.40;78.80
40077;DHT22;25777;47.824;18.982;2023-06-22T11:45:34;32.50;74.20
40077;DHT22;25777;47.824;18.982;2023-06-22T11:48:00;32.50;71.20
40077;DHT22;25777;47.824;18.982;2023-06-22T11:50:26;32.60;74.20
40077;DHT22;25777;47.824;18.982;2023-06-22T11:52:52;32.50;72.50
40077;DHT22;25777;47.824;18.982;2023-06-22T11:55:25;32.60;80.30
40077;DHT22;25777;47.824;18.982;2023-06-22T11:57:57;32.80;74.30
40077;DHT22;25777;47.824;18.982;2023-06-22T12:00:44;32.80;76.50
40077;DHT22;25777;47.824;18.982;2023-06-22T12:06:05;32.60;78.50
40077;DHT22;25777;47.824;18.982;2023-06-22T12:08:33;32.70;77.20
40077;DHT22;25777;47.824;18.982;2023-06-22T12:10:58;32.60;77.60
40077;DHT22;25777;47.824;18.982;2023-06-22T12:13:24;32.60;71.30
40077;DHT22;25777;47.824;18.982;2023-06-22T12:15:50;32.60;73.30
40077;DHT22;25777;47.824;18.982;2023-06-22T12:18:18;32.20;76.60
40077;DHT22;25777;47.824;18.982;2023-06-22T12:20:48;32.00;74.80
40077;DHT22;25777;47.824;18.982;2023-06-22T12:23:16;32.20;81.90
40077;DHT22;25777;47.824;18.982;2023-06-22T12:28:11;32.50;77.10
40077;DHT22;25777;47.824;18.982;2023-06-22T12:30:49;32.50;76.10
40077;DHT22;25777;47.824;18.982;2023-06-22T12:38:30;32.30;72.10
40077;DHT22;25777;47.824;18.982;2023-06-22T12:43:27;32.90;69.90
40077;DHT22;25777;47.824;18.982;2023-06-22T12:50:54;32.40;76.50
40077;DHT22;25777;47.824;18.982;2023-06-22T12:53:20;32.50;75.70
40077;DHT22;25777;47.824;18.982;2023-06-22T12:55:53;32.30;74.60
40077;DHT22;25777;47.824;18.982;2023-06-22T13:01:11;32.20;76.70
40077;DHT22;25777;47.824;18.982;2023-06-22T13:03:37;32.60;75.80
40077;DHT22;25777;47.824;18.982;2023-06-22T13:06:02;32.90;71.70
40077;DHT22;25777;47.824;18.982;2023-06-22T13:08:29;32.90;70.00
40077;DHT22;25777;47.824;18.982;2023-06-22T13:10:56;32.70;75.10
40077;DHT22;25777;47.824;18.982;2023-06-22T13:13:25;32.30;78.40
40077;DHT22;25777;47.824;18.982;2023-06-22T13:15:52;32.10;79.90
40077;DHT22;25777;47.824;18.982;2023-06-22T13:18:19;32.10;84.60
40077;DHT22;25777;47.824;18.982;2023-06-22T13:20:45;32.00;80.60
40077;DHT22;25777;47.824;18.982;2023-06-22T13:23:18;32.30;78.10
40077;DHT22;25777;47.824;18.982;2023-06-22T13:25:45;32.30;78.50
40077;DHT22;25777;47.824;18.982;2023-06-22T13:28:12;32.40;81.50
40077;DHT22;25777;47.824;18.982;2023-06-22T13:30:45;32.50;74.40
40077;DHT22;25777;47.824;18.982;2023-06-22T13:33:15;32.30;73.50
40077;DHT22;25777;47.824;18.982;2023-06-22T13:35:49;32.00;81.00
40077;DHT22;25777;47.824;18.982;2023-06-22T13:38:15;32.10;82.80
40077;DHT22;25777;47.824;18.982;2023-06-22T13:40:41;32.30;81.40
40077;DHT22;25777;47.824;18.982;2023-06-22T13:43:06;32.20;77.70
40077;DHT22;25777;47.824;18.982;2023-06-22T13:45:33;32.10;80.20
40077;DHT22;25777;47.824;18.982;2023-06-22T13:47:59;31.80;79.20
40077;DHT22;25777;47.824;18.982;2023-06-22T13:50:25;31.70;74.80
40077;DHT22;25777;47.824;18.982;2023-06-22T13:55:21;31.30;81.90
40077;DHT22;25777;47.824;18.982;2023-06-22T13:57:48;31.50;83.00
40077;DHT22;25777;47.824;18.982;2023-06-22T14:00:27;30.90;80.30
40077;DHT22;25777;47.824;18.982;2023-06-22T14:03:02;30.70;86.10
40077;DHT22;25777;47.824;18.982;2023-06-22T14:05:28;30.50;86.30
40077;DHT22;25777;47.824;18.982;2023-06-22T14:10:32;30.90;87.20
40077;DHT22;25777;47.824;18.982;2023-06-22T14:12:57;30.80;89.20
40077;DHT22;25777;47.824;18.982;2023-06-22T14:17:55;30.60;88.30
40077;DHT22;25777;47.824;18.982;2023-06-22T14:20:22;30.60;85.00
40077;DHT22;25777;47.824;18.982;2023-06-22T14:22:54;30.60;89.10
40077;DHT22;25777;47.824;18.982;2023-06-22T14:25:22;30.80;87.10
40077;DHT22;25777;47.824;18.982;2023-06-22T14:27:51;30.30;89.40
40077;DHT22;25777;47.824;18.982;2023-06-22T14:35:39;29.90;88.80
40077;DHT22;25777;47.824;18.982;2023-06-22T14:38:06;30.00;91.80
40077;DHT22;25777;47.824;18.982;2023-06-22T14:40:38;30.00;86.70
40077;DHT22;25777;47.824;18.982;2023-06-22T14:43:21;29.80;90.80
40077;DHT22;25777;47.824;18.982;2023-06-22T14:45:48;29.60;92.50
40077;DHT22;25777;47.824;18.982;2023-06-22T14:50:43;29.70;93.00
40077;DHT22;25777;47.824;18.982;2023-06-22T14:53:09;29.60;93.70
40077;DHT22;25777;47.824;18.982;2023-06-22T14:55:36;29.60;92.90
40077;DHT22;25777;47.824;18.982;2023-06-22T14:58:14;29.30;95.20
40077;DHT22;25777;47.824;18.982;2023-06-22T15:00:41;29.50;94.30
40077;DHT22;25777;47.824;18.982;2023-06-22T15:03:12;29.50;95.60
40077;DHT22;25777;47.824;18.982;2023-06-22T15:05:43;29.40;95.30
40077;DHT22;25777;47.824;18.982;2023-06-22T15:08:17;29.40;94.60
40077;DHT22;25777;47.824;18.982;2023-06-22T15:10:43;29.40;95.10
40077;DHT22;25777;47.824;18.982;2023-06-22T15:13:09;29.60;93.60
40077;DHT22;25777;47.824;18.982;2023-06-22T15:15:37;29.40;93.80
40077;DHT22;25777;47.824;18.982;2023-06-22T15:18:02;29.20;96.10
40077;DHT22;25777;47.824;18.982;2023-06-22T15:25:49;28.70;97.60
40077;DHT22;25777;47.824;18.982;2023-06-22T15:28:31;28.70;97.80
40077;DHT22;25777;47.824;18.982;2023-06-22T15:33:29;28.60;99.00
40077;DHT22;25777;47.824;18.982;2023-06-22T15:36:03;28.60;98.90
40077;DHT22;25777;47.824;18.982;2023-06-22T15:41:02;28.50;98.90
40077;DHT22;25777;47.824;18.982;2023-06-22T15:45:59;28.40;99.90
40077;DHT22;25777;47.824;18.982;2023-06-22T15:48:26;28.30;99.90
40077;DHT22;25777;47.824;18.982;2023-06-22T15:50:53;28.30;99.90
40077;DHT22;25777;47.824;18.982;2023-06-22T15:53:25;28.30;99.90
40077;DHT22;25777;47.824;18.982;2023-06-22T15:58:20;28.30;99.90
40077;DHT22;25777;47.824;18.982;2023-06-22T16:01:02;28.30;99.90
40077;DHT22;25777;47.824;18.982;2023-06-22T16:03:38;28.20;99.90
40077;DHT22;25777;47.824;18.982;2023-06-22T16:06:05;28.10;99.90
40077;DHT22;25777;47.824;18.982;2023-06-22T16:08:31;28.00;99.90
40077;DHT22;25777;47.824;18.982;2023-06-22T16:11:08;28.00;99.90
40077;DHT22;25777;47.824;18.982;2023-06-22T16:13:46;28.00;99.90
40077;DHT22;25777;47.824;18.982;2023-06-22T16:16:13;27.90;99.90
40077;DHT22;25777;47.824;18.982;2023-06-22T16:18:41;27.90;99.90
40077;DHT22;25777;47.824;18.982;2023-06-22T16:21:09;28.00;99.90
40077;DHT22;25777;47.824;18.982;2023-06-22T16:26:26;27.80;99.90
40077;DHT22;25777;47.824;18.982;2023-06-22T16:28:52;27.70;99.90
40077;DHT22;25777;47.824;18.982;2023-06-22T16:31:18;27.70;99.90
40077;DHT22;25777;47.824;18.982;2023-06-22T16:33:44;27.60;99.90
40077;DHT22;25777;47.824;18.982;2023-06-22T16:36:13;27.50;99.90
40077;DHT22;25777;47.824;18.982;2023-06-22T16:38:45;27.50;99.90
40077;DHT22;25777;47.824;18.982;2023-06-22T16:43:45;27.50;99.90
40077;DHT22;25777;47.824;18.982;2023-06-22T16:46:10;27.30;99.90
40077;DHT22;25777;47.824;18.982;2023-06-22T16:51:15;27.20;99.90
40077;DHT22;25777;47.824;18.982;2023-06-22T16:53:52;27.20;99.90
40077;DHT22;25777;47.824;18.982;2023-06-22T16:56:36;27.20;99.90
40077;DHT22;25777;47.824;18.982;2023-06-22T16:59:15;27.10;99.90
40077;DHT22;25777;47.824;18.982;2023-06-22T17:01:50;27.00;99.90
40077;DHT22;25777;47.824;18.982;2023-06-22T17:07:15;26.80;99.90
40077;DHT22;25777;47.824;18.982;2023-06-22T17:09:45;26.80;99.90
40077;DHT22;25777;47.824;18.982;2023-06-22T17:12:12;26.70;99.90
40077;DHT22;25777;47.824;18.982;2023-06-22T17:14:46;26.60;99.90
40077;DHT22;25777;47.824;18.982;2023-06-22T17:17:14;26.50;99.90
40077;DHT22;25777;47.824;18.982;2023-06-22T17:19:54;26.50;99.90
40077;DHT22;25777;47.824;18.982;2023-06-22T17:22:22;26.50;99.90
40077;DHT22;25777;47.824;18.982;2023-06-22T17:24:49;26.40;99.90
40077;DHT22;25777;47.824;18.982;2023-06-22T17:27:25;26.30;99.90
40077;DHT22;25777;47.824;18.982;2023-06-22T17:30:02;26.30;99.90
40077;DHT22;25777;47.824;18.982;2023-06-22T17:34:57;26.00;99.90
40077;DHT22;25777;47.824;18.982;2023-06-22T17:40:01;26.00;99.90
40077;DHT22;25777;47.824;18.982;2023-06-22T17:42:29;25.80;99.90
40077;DHT22;25777;47.824;18.982;2023-06-22T17:44:59;25.70;99.90
40077;DHT22;25777;47.824;18.982;2023-06-22T17:47:25;25.70;99.90
40077;DHT22;25777;47.824;18.982;2023-06-22T17:50:02;25.80;99.90
40077;DHT22;25777;47.824;18.982;2023-06-22T17:52:29;25.70;99.90
40077;DHT22;25777;47.824;18.982;2023-06-22T17:54:56;25.70;99.90
40077;DHT22;25777;47.824;18.982;2023-06-22T17:57:42;25.60;99.90
40077;DHT22;25777;47.824;18.982;2023-06-22T18:00:11;25.60;99.90
40077;DHT22;25777;47.824;18.982;2023-06-22T18:02:40;25.50;99.90
40077;DHT22;25777;47.824;18.982;2023-06-22T18:05:08;25.40;99.90
40077;DHT22;25777;47.824;18.982;2023-06-22T18:07:41;25.30;99.90
40077;DHT22;25777;47.824;18.982;2023-06-22T18:10:09;25.30;99.90
40077;DHT22;25777;47.824;18.982;2023-06-22T18:12:42;25.40;99.90
40077;DHT22;25777;47.824;18.982;2023-06-22T18:20:14;25.20;99.90
40077;DHT22;25777;47.824;18.982;2023-06-22T18:22:40;25.10;99.90
40077;DHT22;25777;47.824;18.982;2023-06-22T18:25:06;25.10;99.90
40077;DHT22;25777;47.824;18.982;2023-06-22T18:27:48;25.10;99.90
40077;DHT22;25777;47.824;18.982;2023-06-22T18:30:17;25.20;99.90
40077;DHT22;25777;47.824;18.982;2023-06-22T18:32:49;25.10;99.90
40077;DHT22;25777;47.824;18.982;2023-06-22T18:35:16;25.00;99.90
40077;DHT22;25777;47.824;18.982;2023-06-22T18:37:43;24.90;99.90
40077;DHT22;25777;47.824;18.982;2023-06-22T18:40:12;24.80;99.90